Tiempo atmosférico en la estación meteorológica de Salobreña, Granada (20 m.)



Fecha
DESCASC
Temp. máxima en grados centígrados (hora)
DESCASC
Temp. mínima en grados centígrados (hora)
DESCASC
Temp. media en grados centígrados
DESCASC
Racha de viento máxima en m/sg (hora)
DESCASC
Velocidad máxima media en intervalos de 10 minutos(hora)
DESCASC
Precipitaciones diarias en mm
DESCASC
Precipitaciones de 00:00 a 06:00 en mm
DESCASC
Precipitaciones de 06:00 a 12:00 en mm
DESCASC
Precipitaciones de 12:00 a 18:00 en mm
DESCASC
Precipitaciones de 18:00 a 24:00 en mm
DESCASC
13-01-2021 14.9 (15:00) 3.4 (07:00) 9.1 7.5 (15:00) 3.89 (10:50) 0 0 0 0 0
12-01-2021 14.7 (12:20) 4.9 (23:59) 9.8 7.5 (09:50) 4.17 (10:00) 0 0 0 0 0
11-01-2021 12.5 (12:20) 5.9 (01:10) 9.2 7.5 (03:50) 4.17 (12:50) 6 3.8 2.2 0 0
10-01-2021 11.6 (13:00) 4.6 (03:40) 8.1 5.83 (07:30) 2.78 (06:30) 10.4 7.2 3.2 0 0
09-01-2021 13.9 (13:50) 7.4 (00:00) 10.6 12.22 (04:40) 6.67 (00:10) 7 1 0 0 6
08-01-2021 13.4 (21:20) 9.6 (00:00) 11.5 14.17 (23:30) 6.67 (23:00) 39.8 15 10.4 9.8 4.6
07-01-2021 11.5 (15:20) 8.7 (00:00) 10.1 6.94 (01:50) 3.61 (01:50) 20 6 2.2 1.4 10.4
06-01-2021 -- (--) -- (--) -- -- (--) -- (--) -- -- 0 0 7
05-01-2021 16 (12:20) 6.5 (00:00) 11.3 9.72 (00:10) 5.83 (00:10) 0 0 0 0 0
04-01-2021 -- (--) -- (--) -- -- (--) -- (--) -- 0 -- 0 0
03-01-2021 16.1 (14:10) 2.7 (00:00) 9.4 11.11 (03:40) 6.39 (15:00) 0 0 0 0 0
02-01-2021 14.9 (14:10) 3.1 (00:00) 9 12.78 (13:50) 5.83 (16:00) 0 0 0 0 0
01-01-2021 -- (--) -- (--) -- -- (--) -- (--) -- 0 0 0 --
31-12-2020 15.7 (17:00) 6.2 (00:00) 10.9 12.22 (21:10) 6.94 (21:10) 0 0 0 0 0
30-12-2020 17 (13:10) 5.8 (00:00) 11.4 11.94 (04:00) 5.83 (04:00) 0 0 0 0 0
29-12-2020 -- (--) -- (--) -- -- (--) -- (--) -- 0 0 -- 0
28-12-2020 18.2 (13:00) 3.7 (00:00) 11 17.5 (06:20) 9.17 (06:30) 0 0 0 0 0
27-12-2020 15.1 (14:30) 3.8 (00:00) 9.5 9.72 (16:30) 5.28 (16:30) 0 0 0 0 0
26-12-2020 15.6 (12:10) 5.2 (00:00) 10.4 7.78 (07:10) 4.72 (07:10) 0 0 0 0 0
25-12-2020 18.6 (14:10) 9.4 (00:00) 14 5.83 (03:10) 3.89 (15:00) 0.2 0 0 0 0.2
24-12-2020 -- (--) -- (--) -- -- (--) -- (--) -- 0 -- 0 0
23-12-2020 18 (11:30) 8 (00:00) 13 8.61 (13:50) 4.17 (14:50) 0 0 0 0 0
22-12-2020 -- (--) -- (--) -- -- (--) -- (--) -- 0 -- 0 0
21-12-2020 -- (--) -- (--) -- -- (--) -- (--) 0 0 0 0 0
20-12-2020 18.8 (13:40) 9.8 (00:00) 14.3 7.5 (22:50) 4.44 (22:30) 0.2 0.2 0 0 0
19-12-2020 16.7 (13:40) 7.7 (00:00) 12.2 8.06 (15:50) 4.72 (15:30) 0 0 0 0 0
18-12-2020 -- (--) -- (--) -- -- (--) -- (--) 0 0 0 0 0
17-12-2020 18.5 (15:20) 10.5 (00:00) 14.5 3.89 (08:50) 2.5 (08:40) 1.2 0 1.2 0 0

Gráficas

Temp. máximas Temp. mínimas Temp. medias Precipitaciones Rachas de viento máximas Velocidades máximas media en intervalos de 10 minutos

Datos horarios

Fecha y hora oficial Temperatura (ºC) Velocidad del viento (km/h) Dirección del viento Racha (km/h) Dirección de racha Precipitación (mm) Presión (hPa) Tendencia (hPa) Humedad (%)
2021-01-15 23:00:00 -- -- -- -- -- -- -- -- --
2021-01-15 22:00:00 6.4 3 Nordeste 14 Nordeste 0 -- -- 89
2021-01-15 21:00:00 7.7 8 Nordeste 12 Nordeste 0 -- -- 91
2021-01-15 20:00:00 8.3 7 Norte 12 Norte 0 -- -- 91
2021-01-15 19:00:00 9.5 7 Norte 11 Norte 0 -- -- 87
2021-01-15 18:00:00 14.7 0 Calma 15 Oeste 0 -- -- 64
2021-01-15 17:00:00 15.8 8 Sudoeste 20 Oeste 0 -- -- 55
2021-01-15 16:00:00 15.9 10 Sudoeste 28 Oeste 0 -- -- 59
2021-01-15 15:00:00 16 16 Oeste 33 Oeste 0 -- -- 53
2021-01-15 14:00:00 16.5 10 Oeste 23 Noroeste 0 -- -- 53
2021-01-15 13:00:00 16.2 9 Oeste 18 Sudoeste 0 -- -- 54
2021-01-15 12:00:00 15.3 11 Oeste 17 Oeste 0 -- -- 56
2021-01-15 11:00:00 15.6 7 Oeste 20 Norte 0 -- -- 45
2021-01-15 10:00:00 11.9 3 Norte 13 Norte 0 -- -- 47
2021-01-15 09:00:00 6.8 7 Norte 14 Norte 0 -- -- 62
2021-01-15 08:00:00 8.8 8 Nordeste 18 Nordeste 0 -- -- 50
2021-01-15 07:00:00 9.5 12 Norte 21 Nordeste 0 -- -- 46
2021-01-15 06:00:00 9.5 11 Nordeste 25 Nordeste 0 -- -- 48
2021-01-15 05:00:00 9.9 12 Norte 23 Norte 0 -- -- 46
2021-01-15 04:00:00 10.8 14 Nordeste 33 Nordeste 0 -- -- 44
2021-01-15 03:00:00 11.3 15 Nordeste 32 Nordeste 0 -- -- 44
2021-01-15 02:00:00 10.8 8 Norte 17 Nordeste 0 -- -- 46
2021-01-15 01:00:00 10.9 10 Norte 22 Norte 0 -- -- 49
2021-01-15 00:00:00 11.4 10 Norte 24 Norte 0 -- -- 48
2021-01-14 23:00:00 12.2 13 Nordeste 28 Norte 0 -- -- 45
2021-01-14 22:00:00 12.2 9 Norte 29 Nordeste 0 -- -- 48
2021-01-14 21:00:00 11 9 Norte 19 Nordeste 0 -- -- 54
2021-01-14 20:00:00 9.1 9 Norte 14 Noroeste 0 -- -- 75
2021-01-14 19:00:00 9.8 7 Norte 12 Nordeste 0 -- -- 78
2021-01-14 18:00:00 14.4 4 Norte 6 Norte 0 -- -- 63
2021-01-14 17:00:00 17 4 Sur 8 Sur 0 -- -- 40
2021-01-14 16:00:00 16.8 4 Sudoeste 10 Sudoeste 0 -- -- 40
2021-01-14 15:00:00 16.7 6 Sudoeste 12 Sur 0 -- -- 47
2021-01-14 14:00:00 16 6 Sudoeste 15 Sudoeste 0 -- -- 58
2021-01-14 13:00:00 15.3 8 Sudoeste 19 Oeste 0 -- -- 61
2021-01-14 12:00:00 15.4 10 Oeste 21 Oeste 0 -- -- 51
2021-01-14 11:00:00 14.9 10 Nordeste 26 Nordeste 0 -- -- 40
2021-01-14 10:00:00 12 8 Norte 21 Norte 0 -- -- 47
2021-01-14 09:00:00 7.6 11 Norte 18 Norte 0 -- -- 60
2021-01-14 08:00:00 8.4 10 Norte 24 Nordeste 0 -- -- 55
2021-01-14 07:00:00 8.4 9 Norte 19 Nordeste 0 -- -- 57
2021-01-14 06:00:00 7.9 12 Norte 21 Norte 0 -- -- 60
2021-01-14 05:00:00 7.5 9 Norte 18 Norte 0 -- -- 66
2021-01-14 04:00:00 6.9 11 Norte 19 Nordeste 0 -- -- 72
2021-01-14 03:00:00 5.3 9 Norte 13 Norte 0 -- -- 83
2021-01-14 02:00:00 4.6 7 Norte 13 Nordeste 0 -- -- 90
2021-01-14 01:00:00 5.5 8 Norte 12 Nordeste 0 -- -- 88
2021-01-14 00:00:00 5.6 7 Norte 12 Norte 0 -- -- 91
2021-01-13 23:00:00 5.9 8 Norte 12 Norte 0 -- -- 94
2021-01-13 22:00:00 5.6 8 Nordeste 10 Nordeste 0 -- -- 94
2021-01-13 21:00:00 6.8 5 Nordeste 12 Nordeste 0 -- -- 91
2021-01-13 20:00:00 7.2 7 Norte 12 Nordeste 0 -- -- 91
2021-01-13 19:00:00 9.7 6 Norte 14 Oeste 0 -- -- 82
2021-01-13 18:00:00 13.4 6 Oeste 21 Oeste 0 -- -- 65
2021-01-13 17:00:00 14.3 8 Oeste 24 Oeste 0 -- -- 63
2021-01-13 16:00:00 14.9 10 Oeste 25 Sudoeste 0 -- -- 60
2021-01-13 15:00:00 14.9 10 Oeste 27 Oeste 0 -- -- 60
2021-01-13 14:00:00 14.6 13 Oeste 26 Sudoeste 0 -- -- 54
2021-01-13 13:00:00 14.7 11 Oeste 25 Sudoeste 0 -- -- 56
2021-01-13 12:00:00 14.6 5 Oeste 20 Este 0 -- -- 47
2021-01-13 11:00:00 12.2 13 Nordeste 23 Nordeste 0 -- -- 48
2021-01-13 10:00:00 9.2 10 Nordeste 18 Nordeste 0 -- -- 61
2021-01-13 09:00:00 4.9 9 Nordeste 14 Nordeste 0 -- -- 77
2021-01-13 08:00:00 4.1 8 Nordeste 14 Nordeste 0 -- -- 82
2021-01-13 07:00:00 3.4 8 Nordeste 14 Nordeste 0 -- -- 85
2021-01-13 06:00:00 4.5 8 Norte 13 Nordeste 0 -- -- 82
2021-01-13 05:00:00 5.3 8 Nordeste 15 Nordeste 0 -- -- 79
2021-01-13 04:00:00 5.4 9 Nordeste 16 Nordeste 0 -- -- 79
2021-01-13 03:00:00 5.6 7 Nordeste 13 Este 0 -- -- 80
2021-01-13 02:00:00 5.3 7 Nordeste 13 Nordeste 0 -- -- 83
2021-01-13 01:00:00 5 6 Nordeste 12 Nordeste 0 -- -- 86
2021-01-13 00:00:00 4.9 7 Nordeste 12 Nordeste 0 -- -- 88
2021-01-12 23:00:00 5.5 8 Nordeste 12 Nordeste 0 -- -- 90
2021-01-12 22:00:00 6 6 Nordeste 13 Nordeste 0 -- -- 89
2021-01-12 21:00:00 5.9 8 Norte 12 Nordeste 0 -- -- 91
2021-01-12 20:00:00 6.9 6 Nordeste 12 Nordeste 0 -- -- 89
2021-01-12 19:00:00 8.2 6 Norte 16 Oeste 0 -- -- 82
2021-01-12 18:00:00 13.2 8 Oeste 18 Oeste 0 -- -- 60
2021-01-12 17:00:00 13.6 8 Sudoeste 18 Oeste 0 -- -- 56
2021-01-12 16:00:00 14.3 8 Sudoeste 16 Sudoeste 0 -- -- 62
2021-01-12 15:00:00 14.4 9 Sudoeste 18 Oeste 0 -- -- 58
2021-01-12 14:00:00 14.2 10 Sudoeste 18 Sudoeste 0 -- -- 57
2021-01-12 13:00:00 14.3 9 Sudoeste 14 Sudoeste 0 -- -- 55
2021-01-12 12:00:00 14.2 3 Sudeste 21 Nordeste 0 -- -- 50
2021-01-12 11:00:00 11.9 11 Nordeste 26 Nordeste 0 -- -- 61
2021-01-12 10:00:00 9.2 15 Nordeste 27 Nordeste 0 -- -- 67
2021-01-12 09:00:00 6.4 13 Nordeste 22 Nordeste 0 -- -- 78
2021-01-12 08:00:00 5.2 8 Nordeste 21 Nordeste 0 -- -- 83
2021-01-12 07:00:00 5.7 11 Nordeste 16 Nordeste 0 -- -- 81
2021-01-12 06:00:00 6.2 10 Nordeste 20 Nordeste 0 -- -- 80
2021-01-12 05:00:00 6.2 11 Nordeste 19 Nordeste 0 -- -- 82
2021-01-12 04:00:00 5.9 9 Nordeste 17 Nordeste 0 -- -- 84
2021-01-12 03:00:00 6.4 12 Nordeste 18 Nordeste 0 -- -- 83
2021-01-12 02:00:00 5.8 9 Nordeste 14 Nordeste 0 -- -- 89
2021-01-12 01:00:00 6 8 Norte 13 Nordeste 0 -- -- 91
2021-01-12 00:00:00 6.5 8 Norte 13 Nordeste 0 -- -- 93
2021-01-11 23:00:00 7.3 6 Nordeste 9 Nordeste 0 -- -- 93
2021-01-11 22:00:00 8.2 7 Nordeste 10 Nordeste 0 -- -- 93
2021-01-11 21:00:00 8.8 3 Nordeste 6 Nordeste 0 -- -- 93
2021-01-11 20:00:00 8.8 3 Nordeste 4 Norte 0 -- -- 94
2021-01-11 19:00:00 9 4 Norte 5 Norte 0 -- -- 89
2021-01-11 18:00:00 11.1 3 Sur 10 Sur 0 -- -- 81
2021-01-11 17:00:00 11.3 6 Sur 15 Sur 0 -- -- 79
2021-01-11 16:00:00 11.3 10 Sur 18 Sur 0 -- -- 79
2021-01-11 15:00:00 11.9 9 Sudeste 20 Sudeste 0 -- -- 76
2021-01-11 14:00:00 12 5 Sudeste 19 Sudeste 0 -- -- 76
2021-01-11 13:00:00 11 13 Sudeste 26 Sudeste 0 -- -- 77
2021-01-11 12:00:00 11.3 9 Este 20 Nordeste 0 -- -- 69
2021-01-11 11:00:00 10.3 13 Nordeste 24 Este 0 -- -- 75
2021-01-11 10:00:00 7.9 10 Nordeste 20 Nordeste 0.2 -- -- 89
2021-01-11 09:00:00 6.8 6 Nordeste 18 Nordeste 1.6 -- -- 92
2021-01-11 08:00:00 7.5 8 Nordeste 23 Nordeste 0.4 -- -- 85
2021-01-11 07:00:00 7.3 11 Nordeste 21 Nordeste 0 -- -- 84
2021-01-11 06:00:00 6.7 10 Nordeste 16 Nordeste 0.6 -- -- 90
2021-01-11 05:00:00 7.3 6 Nordeste 14 Norte 1.6 -- -- 88
2021-01-11 04:00:00 8.2 7 Nordeste 27 Este 1.6 -- -- 82
2021-01-11 03:00:00 8.1 8 Norte 22 Nordeste 0 -- -- 73
2021-01-11 02:00:00 7.7 11 Nordeste 18 Nordeste 0 -- -- 71
2021-01-11 01:00:00 6.5 6 Nordeste 17 Nordeste 0 -- -- 80
2021-01-11 00:00:00 7.6 10 Nordeste 19 Nordeste 0 -- -- 74
2021-01-10 23:00:00 7.1 10 Nordeste 16 Nordeste 0 -- -- 79
2021-01-10 22:00:00 6.9 10 Nordeste 15 Nordeste 0 -- -- 83
2021-01-10 21:00:00 6.7 9 Nordeste 14 Nordeste 0 -- -- 86
2021-01-10 20:00:00 5.9 8 Nordeste 12 Norte 0 -- -- 90
2021-01-10 19:00:00 6.6 5 Norte 9 Nordeste 0 -- -- 88
2021-01-10 18:00:00 10 0 Calma 4 Sur 0 -- -- 81
2021-01-10 17:00:00 10.9 0 Calma 7 Norte 0 -- -- 71
2021-01-10 16:00:00 11 3 Norte 9 Norte 0 -- -- 71
2021-01-10 15:00:00 10.7 3 Sur 11 Sur 0 -- -- 65
2021-01-10 14:00:00 11.1 6 Sur 11 Sur 0 -- -- 66
2021-01-10 13:00:00 11.6 6 Sur 13 Sur 0 -- -- 62
2021-01-10 12:00:00 10.4 4 Este 10 Nordeste 0 -- -- 68
2021-01-10 11:00:00 9.3 7 Nordeste 14 Nordeste 0 -- -- 80
2021-01-10 10:00:00 6.4 2 Nordeste 14 Nordeste 0 -- -- 93
2021-01-10 09:00:00 5.3 10 Nordeste 15 Nordeste 0 -- -- 93
2021-01-10 08:00:00 5.2 5 Nordeste 21 Nordeste 0.2 -- -- 91
2021-01-10 07:00:00 6.2 0 Calma 19 Norte 3 -- -- 94
2021-01-10 06:00:00 5.9 9 Nordeste 15 Nordeste 0.2 -- -- 94
2021-01-10 05:00:00 5.7 7 Nordeste 13 Nordeste 0 -- -- 96
2021-01-10 04:00:00 4.7 7 Nordeste 12 Nordeste 0 -- -- 97
2021-01-10 03:00:00 5.4 6 Nordeste 13 Nordeste 0 -- -- 93
2021-01-10 02:00:00 7 8 Nordeste 18 Nordeste 5 -- -- 94
2021-01-10 01:00:00 7.4 4 Nordeste 7 Nordeste 2 -- -- 96
2021-01-10 00:00:00 7.4 4 Nordeste 13 Nordeste 3.6 -- -- 93
2021-01-09 23:00:00 7.7 5 Nordeste 13 Nordeste 2.2 -- -- 91
2021-01-09 22:00:00 8.9 4 Oeste 18 Oeste 0.2 -- -- 87
2021-01-09 21:00:00 10.1 11 Sur 25 Sur 0 -- -- 74
2021-01-09 20:00:00 9.5 6 Nordeste 14 Norte 0 -- -- 72
2021-01-09 19:00:00 8.8 7 Norte 11 Sudoeste 0 -- -- 74
2021-01-09 18:00:00 11.9 4 Oeste 25 Sudoeste 0 -- -- 56
2021-01-09 17:00:00 13 13 Oeste 33 Sudoeste 0 -- -- 49
2021-01-09 16:00:00 13.3 16 Oeste 35 Oeste 0 -- -- 54
2021-01-09 15:00:00 13.5 18 Oeste 41 Oeste 0 -- -- 51
2021-01-09 14:00:00 13.7 17 Oeste 37 Oeste 0 -- -- 50
2021-01-09 13:00:00 13.1 16 Oeste 34 Oeste 0 -- -- 55
2021-01-09 12:00:00 13.3 20 Oeste 35 Oeste 0 -- -- 53
2021-01-09 11:00:00 13 18 Oeste 40 Oeste 0 -- -- 63
2021-01-09 10:00:00 11.9 21 Oeste 44 Oeste 0 -- -- 70
2021-01-09 09:00:00 12 17 Sudoeste 32 Sudoeste 0 -- -- 76
2021-01-09 08:00:00 12.1 12 Sudoeste 33 Oeste 0 -- -- 74
2021-01-09 07:00:00 12 5 Noroeste 31 Noroeste 0 -- -- 77
2021-01-09 06:00:00 12.6 13 Oeste 33 Noroeste 0 -- -- 75
2021-01-09 05:00:00 12.9 14 Oeste 44 Sudoeste 0 -- -- 80
2021-01-09 04:00:00 10.9 5 Este 14 Oeste 0 -- -- 92
2021-01-09 03:00:00 13 6 Oeste 33 Sudoeste 0 -- -- 88
2021-01-09 02:00:00 12.5 13 Sur 34 Sudeste 0.2 -- -- 91
2021-01-09 01:00:00 12.8 15 Sur 40 Sudoeste 0.8 -- -- 90
2021-01-09 00:00:00 12.9 21 Sur 51 Sudeste 0.6 -- -- 88
2021-01-08 23:00:00 13.3 24 Sudeste 46 Sudeste 0.8 -- -- 83
2021-01-08 22:00:00 13 6 Sudeste 28 Sudeste 1.8 -- -- 87
2021-01-08 21:00:00 13.1 9 Sudeste 28 Este 0 -- -- 86
2021-01-08 20:00:00 11.7 5 Nordeste 13 Este 1.2 -- -- 97
2021-01-08 19:00:00 11.6 6 Nordeste 9 Nordeste 0.2 -- -- 97
2021-01-08 18:00:00 11.8 4 Nordeste 13 Nordeste 0.4 -- -- 94
2021-01-08 17:00:00 11.9 10 Nordeste 17 Este 0.2 -- -- 95
2021-01-08 16:00:00 11.8 6 Nordeste 15 Norte 0.8 -- -- 97
2021-01-08 15:00:00 11.7 5 Nordeste 11 Nordeste 2.2 -- -- 95
2021-01-08 14:00:00 12 3 Noroeste 16 Sudeste 4.4 -- -- 97
2021-01-08 13:00:00 11.8 3 Sudeste 10 Sur 1.8 -- -- 94
2021-01-08 12:00:00 11.2 5 Nordeste 13 Nordeste 0.6 -- -- 98
2021-01-08 11:00:00 11.1 5 Nordeste 8 Norte 0.8 -- -- 99
2021-01-08 10:00:00 10.6 2 Norte 9 Oeste 0.8 -- -- 99
2021-01-08 09:00:00 10.2 2 Noroeste 9 Este 1.6 -- -- 99
2021-01-08 08:00:00 10.2 3 Noroeste 7 Oeste 4.8 -- -- 98
2021-01-08 07:00:00 10.2 2 Sudoeste 18 Este 1.8 -- -- 96
2021-01-08 06:00:00 10.1 7 Este 25 Nordeste 0.4 -- -- 93
2021-01-08 05:00:00 10.2 13 Nordeste 28 Este 1 -- -- 94
2021-01-08 04:00:00 10.1 10 Nordeste 20 Este 3.8 -- -- 96
2021-01-08 03:00:00 9.9 11 Este 23 Nordeste 1.6 -- -- 94
2021-01-08 02:00:00 9.6 7 Este 18 Nordeste 3.8 -- -- 95
2021-01-08 01:00:00 9.7 8 Nordeste 15 Nordeste 4.4 -- -- 96
2021-01-08 00:00:00 9.8 0 Calma 7 Nordeste 4.6 -- -- 98
2021-01-07 23:00:00 9.9 4 Norte 15 Este 2.8 -- -- 97
2021-01-07 22:00:00 9.9 6 Nordeste 13 Nordeste 1.4 -- -- 93
2021-01-07 21:00:00 10.1 6 Nordeste 19 Nordeste 1.4 -- -- 93
2021-01-07 20:00:00 10 6 Nordeste 21 Nordeste 0.2 -- -- 92
2021-01-07 19:00:00 10.1 11 Nordeste 19 Nordeste 0 -- -- 92
2021-01-07 18:00:00 10.8 4 Nordeste 21 Nordeste 0 -- -- 90
2021-01-07 17:00:00 11.1 9 Nordeste 17 Nordeste 0 -- -- 90
2021-01-07 16:00:00 11.4 6 Nordeste 13 Nordeste 0 -- -- 92
2021-01-07 15:00:00 11.4 2 Norte 4 Oeste 0 -- -- 96
2021-01-07 14:00:00 11.1 0 Calma 12 Norte 0.4 -- -- 95
2021-01-07 13:00:00 10.6 2 Nordeste 6 Nordeste 1 -- -- 95
2021-01-07 12:00:00 10.6 3 Norte 8 Nordeste 0.6 -- -- 96
2021-01-07 11:00:00 10.3 0 Calma 7 Este 0.6 -- -- 95
2021-01-07 10:00:00 9.8 3 Norte 13 Nordeste 0.4 -- -- 94
2021-01-07 09:00:00 9.8 5 Nordeste 11 Nordeste 0.4 -- -- 94
2021-01-07 08:00:00 10 6 Nordeste 14 Nordeste 0.2 -- -- 88
2021-01-07 07:00:00 9.9 5 Este 13 Nordeste 0 -- -- 86
2021-01-07 06:00:00 9.4 9 Nordeste 21 Nordeste 0 -- -- 85
2021-01-07 05:00:00 9.2 11 Nordeste 22 Nordeste 0.4 -- -- 85
2021-01-07 04:00:00 9.4 4 Norte 18 Este 1.2 -- -- 92
2021-01-07 03:00:00 9.5 8 Nordeste 23 Nordeste 1 -- -- 88
2021-01-07 02:00:00 9.4 12 Nordeste 25 Nordeste 3.2 -- -- 89
2021-01-07 01:00:00 9.3 12 Nordeste 22 Norte 0.2 -- -- 86
2021-01-07 00:00:00 8.8 8 Nordeste 19 Nordeste 2.6 -- -- 93
2021-01-06 23:00:00 -- -- -- -- -- -- -- -- --
2021-01-06 22:00:00 -- -- -- -- -- -- -- -- --
2021-01-06 21:00:00 -- -- -- -- -- -- -- -- --
2021-01-06 20:00:00 -- -- -- -- -- -- -- -- --
2021-01-06 19:00:00 -- -- -- -- -- -- -- -- --
2021-01-06 18:00:00 -- -- -- -- -- -- -- -- --
2021-01-06 17:00:00 -- -- -- -- -- -- -- -- --
2021-01-06 16:00:00 -- -- -- -- -- -- -- -- --
2021-01-06 15:00:00 -- -- -- -- -- -- -- -- --
2021-01-06 14:00:00 -- -- -- -- -- -- -- -- --
2021-01-06 13:00:00 -- -- -- -- -- -- -- -- --
2021-01-06 12:00:00 -- -- -- -- -- -- -- -- --
2021-01-06 11:00:00 -- -- -- -- -- -- -- -- --
2021-01-06 10:00:00 -- -- -- -- -- -- -- -- --
2021-01-06 09:00:00 -- -- -- -- -- -- -- -- --
2021-01-06 08:00:00 -- -- -- -- -- -- -- -- --
2021-01-06 07:00:00 -- -- -- -- -- -- -- -- --
2021-01-06 06:00:00 -- -- -- -- -- -- -- -- --
2021-01-06 05:00:00 -- -- -- -- -- -- -- -- --
2021-01-06 04:00:00 -- -- -- -- -- -- -- -- --
2021-01-06 03:00:00 -- -- -- -- -- -- -- -- --
2021-01-06 02:00:00 8.2 6 Nordeste 8 Nordeste 0 -- -- 86
2021-01-06 01:00:00 9.1 3 Norte 8 Norte 0 -- -- 84
2021-01-06 00:00:00 9.6 7 Norte 9 Norte 0 -- -- 78
2021-01-05 23:00:00 10 2 Noroeste 5 Nordeste 0 -- -- 74
2021-01-05 22:00:00 11 5 Este 13 Sur 0 -- -- 59
2021-01-05 21:00:00 11.3 6 Este 19 Este 0 -- -- 58
2021-01-05 20:00:00 11.3 9 Este 19 Sudeste 0 -- -- 59
2021-01-05 19:00:00 11.6 8 Sudeste 22 Sudeste 0 -- -- 59
2021-01-05 18:00:00 12 7 Sudeste 21 Sudeste 0 -- -- 60
2021-01-05 17:00:00 12.6 13 Sudeste 23 Sudeste 0 -- -- 58
2021-01-05 16:00:00 13.6 13 Sur 25 Sur 0 -- -- 56
2021-01-05 15:00:00 14 13 Sur 26 Sudeste 0 -- -- 51
2021-01-05 14:00:00 15.1 14 Sur 23 Sur 0 -- -- 43
2021-01-05 13:00:00 14.6 11 Sur 17 Sudoeste 0 -- -- 35
2021-01-05 12:00:00 15.4 3 Nordeste 21 Nordeste 0 -- -- 30
2021-01-05 11:00:00 13 13 Nordeste 25 Nordeste 0 -- -- 37
2021-01-05 10:00:00 8.6 16 Nordeste 27 Nordeste 0 -- -- 47
2021-01-05 09:00:00 6.7 11 Nordeste 18 Nordeste 0 -- -- 53
2021-01-05 08:00:00 7.4 12 Nordeste 22 Nordeste 0 -- -- 51
2021-01-05 07:00:00 7.6 8 Nordeste 17 Norte 0 -- -- 52
2021-01-05 06:00:00 7.7 10 Nordeste 19 Nordeste 0 -- -- 51
2021-01-05 05:00:00 8 13 Nordeste 24 Nordeste 0 -- -- 49
2021-01-05 04:00:00 8.8 19 Nordeste 33 Nordeste 0 -- -- 47
2021-01-05 03:00:00 8.8 10 Norte 22 Norte 0 -- -- 49
2021-01-05 02:00:00 9.4 13 Norte 23 Norte 0 -- -- 47
2021-01-05 01:00:00 9.9 12 Norte 35 Norte 0 -- -- 45
2021-01-05 00:00:00 10.9 18 Norte 37 Norte 0 -- -- 41
2021-01-04 23:00:00 11.3 22 Norte 37 Norte 0 -- -- 38
2021-01-04 22:00:00 9.7 11 Noroeste 29 Noroeste 0 -- -- 42
2021-01-04 21:00:00 11.1 13 Noroeste 31 Norte 0 -- -- 36
2021-01-04 20:00:00 10.9 17 Norte 32 Noroeste 0 -- -- 37
2021-01-04 19:00:00 11.2 16 Norte 28 Norte 0 -- -- 37
2021-01-04 18:00:00 11.9 10 Norte 22 Norte 0 -- -- 35
2021-01-04 17:00:00 14.3 13 Noroeste 34 Sudoeste 0 -- -- 24
2021-01-04 16:00:00 14.7 19 Oeste 41 Oeste 0 -- -- 36
2021-01-04 15:00:00 15.2 20 Oeste 39 Oeste 0 -- -- 35
2021-01-04 14:00:00 14.9 17 Oeste 37 Noroeste 0 -- -- 32
2021-01-04 13:00:00 14.4 17 Oeste 28 Oeste 0 -- -- 36
2021-01-04 12:00:00 14.5 13 Noroeste 30 Noroeste 0 -- -- 32
2021-01-04 11:00:00 13.1 18 Norte 31 Noroeste 0 -- -- 32
2021-01-04 10:00:00 11.5 16 Norte 35 Norte 0 -- -- 35
2021-01-04 09:00:00 9.8 16 Norte 37 Norte 0 -- -- 37
2021-01-04 08:00:00 9.1 20 Norte 37 Norte 0 -- -- 38
2021-01-04 07:00:00 -- -- -- -- -- -- -- -- --
2021-01-04 06:00:00 1.3 2 Sudoeste 6 Nordeste 0 -- -- 85
2021-01-04 05:00:00 2.3 4 Nordeste 9 Nordeste 0 -- -- 77
2021-01-04 04:00:00 6.4 4 Norte 28 Norte 0 -- -- 53
2021-01-04 03:00:00 8.5 10 Norte 25 Norte 0 -- -- 42
2021-01-04 02:00:00 8.9 14 Norte 29 Norte 0 -- -- 40
2021-01-04 01:00:00 7.9 15 Norte 27 Norte 0 -- -- 40
2021-01-04 00:00:00 5 10 Nordeste 17 Nordeste 0 -- -- 47
2021-01-03 23:00:00 3.1 6 Norte 13 Nordeste 0 -- -- 61
2021-01-03 22:00:00 5.6 8 Nordeste 18 Nordeste 0 -- -- 42
2021-01-03 21:00:00 4.3 9 Nordeste 13 Nordeste 0 -- -- 57
2021-01-03 20:00:00 6.2 6 Nordeste 15 Noroeste 0 -- -- 49
2021-01-03 19:00:00 10.8 11 Noroeste 31 Norte 0 -- -- 25
2021-01-03 18:00:00 11.5 10 Noroeste 31 Noroeste 0 -- -- 24
2021-01-03 17:00:00 14.1 13 Norte 29 Noroeste 0 -- -- 17
2021-01-03 16:00:00 15.3 13 Noroeste 35 Norte 0 -- -- 16
2021-01-03 15:00:00 15.2 23 Norte 37 Norte 0 -- -- 13
2021-01-03 14:00:00 16 4 Nordeste 25 Oeste 0 -- -- 19
2021-01-03 13:00:00 14 14 Oeste 29 Sudoeste 0 -- -- 25
2021-01-03 12:00:00 13.7 8 Sudoeste 21 Este 0 -- -- 18
2021-01-03 11:00:00 11.6 14 Nordeste 32 Nordeste 0 -- -- 27
2021-01-03 10:00:00 9.3 19 Nordeste 32 Nordeste 0 -- -- 29
2021-01-03 09:00:00 5.9 9 Norte 17 Nordeste 0 -- -- 38
2021-01-03 08:00:00 5.6 7 Nordeste 18 Nordeste 0 -- -- 40
2021-01-03 07:00:00 7 12 Norte 28 Noroeste 0 -- -- 35
2021-01-03 06:00:00 8.1 14 Noroeste 27 Norte 0 -- -- 29
2021-01-03 05:00:00 8.1 10 Sudoeste 23 Oeste 0 -- -- 31
2021-01-03 04:00:00 7.9 14 Noroeste 40 Norte 0 -- -- 35
2021-01-03 03:00:00 7.9 11 Noroeste 21 Oeste 0 -- -- 37
2021-01-03 02:00:00 7.4 6 Noroeste 19 Sudoeste 0 -- -- 40
2021-01-03 01:00:00 8 8 Noroeste 21 Noroeste 0 -- -- 37
2021-01-03 00:00:00 7.5 3 Oeste 38 Norte 0 -- -- 47
2021-01-02 23:00:00 8.6 18 Norte 36 Norte 0 -- -- 45
2021-01-02 22:00:00 8.2 14 Norte 28 Norte 0 -- -- 42
2021-01-02 21:00:00 8.7 12 Norte 34 Norte 0 -- -- 37
2021-01-02 20:00:00 8.6 6 Norte 25 Noroeste 0 -- -- 36
2021-01-02 19:00:00 8.5 11 Norte 27 Noroeste 0 -- -- 32
2021-01-02 18:00:00 10.5 10 Norte 27 Norte 0 -- -- 34
2021-01-02 17:00:00 12.3 19 Norte 36 Nordeste 0 -- -- 31
2021-01-02 16:00:00 13.6 21 Norte 32 Norte 0 -- -- 28
2021-01-02 15:00:00 14.2 19 Norte 33 Norte 0 -- -- 25
2021-01-02 14:00:00 14.7 11 Norte 46 Norte 0 -- -- 24